createdAt,value
2023-04-18T00:00:12.340Z,68.84
2023-04-18T00:02:40.305Z,69.15
2023-04-18T00:05:08.734Z,69.10
2023-04-18T00:07:36.069Z,69.29
2023-04-18T00:10:06.019Z,68.85
2023-04-18T00:12:34.448Z,69.75
2023-04-18T00:15:02.397Z,69.49
2023-04-18T00:17:31.960Z,70.00
2023-04-18T00:20:02.401Z,69.11
2023-04-18T00:22:30.659Z,69.64
2023-04-18T00:24:57.721Z,70.14
2023-04-18T00:27:24.650Z,69.61
2023-04-18T00:29:51.726Z,69.97
2023-04-18T00:32:19.757Z,70.15
2023-04-18T00:34:46.932Z,69.97
2023-04-18T00:37:13.880Z,69.66
2023-04-18T00:39:42.399Z,69.81
2023-04-18T00:42:09.416Z,69.55
2023-04-18T00:44:36.395Z,69.49
2023-04-18T00:47:03.508Z,69.90
2023-04-18T00:49:30.867Z,69.84
2023-04-18T00:51:58.841Z,69.82
2023-04-18T00:54:27.960Z,69.55
2023-04-18T00:56:55.462Z,69.09
2023-04-18T00:59:23.236Z,69.10
2023-04-18T01:01:50.476Z,69.23
2023-04-18T01:04:17.816Z,69.94
2023-04-18T01:06:45.794Z,69.78
2023-04-18T01:09:14.131Z,69.54
2023-04-18T01:11:41.394Z,69.78
2023-04-18T01:14:10.056Z,70.21
2023-04-18T01:16:37.220Z,70.01
2023-04-18T01:19:05.897Z,69.93
2023-04-18T01:21:36.163Z,69.67
2023-04-18T01:24:12.553Z,70.15
2023-04-18T01:26:45.956Z,69.72
2023-04-18T01:29:14.111Z,70.47
2023-04-18T01:31:42.427Z,69.85
2023-04-18T01:34:09.735Z,70.17
2023-04-18T01:36:39.639Z,70.60
2023-04-18T01:39:07.257Z,70.74
2023-04-18T01:41:34.286Z,71.07
2023-04-18T01:44:01.723Z,70.95
2023-04-18T01:46:29.452Z,70.75
2023-04-18T01:48:57.897Z,71.58
2023-04-18T01:51:26.430Z,71.81
2023-04-18T01:53:54.117Z,72.05
2023-04-18T01:56:21.190Z,72.06
2023-04-18T01:58:48.356Z,72.55
2023-04-18T02:01:15.583Z,72.13
2023-04-18T02:03:43.212Z,72.06
2023-04-18T02:06:11.086Z,73.02
2023-04-18T02:08:38.738Z,72.61
2023-04-18T02:11:06.077Z,72.84
2023-04-18T02:13:33.198Z,72.64
2023-04-18T02:16:00.324Z,72.92
2023-04-18T02:18:27.939Z,72.81
2023-04-18T02:20:55.025Z,73.46
2023-04-18T02:23:22.574Z,73.75
2023-04-18T02:25:50.839Z,73.50
2023-04-18T02:28:18.119Z,72.78
2023-04-18T02:30:45.329Z,73.29
2023-04-18T02:33:12.302Z,73.06
2023-04-18T02:35:39.336Z,73.18
2023-04-18T02:38:06.456Z,73.67
2023-04-18T02:40:33.690Z,73.61
2023-04-18T02:43:02.121Z,72.92
2023-04-18T02:45:29.633Z,73.32
2023-04-18T02:47:59.721Z,72.46
2023-04-18T02:50:27.163Z,73.15
2023-04-18T02:52:56.208Z,72.56
2023-04-18T02:55:28.248Z,72.67
2023-04-18T02:57:59.117Z,72.50
2023-04-18T03:00:44.593Z,73.10
2023-04-18T03:03:41.187Z,72.52
2023-04-18T03:06:27.506Z,72.69
2023-04-18T03:08:56.267Z,72.71
2023-04-18T03:11:24.880Z,72.18
2023-04-18T03:13:54.030Z,72.47
2023-04-18T03:16:22.993Z,72.61
2023-04-18T03:18:50.306Z,72.59
2023-04-18T03:21:18.421Z,72.79
2023-04-18T03:23:45.616Z,73.15
2023-04-18T03:26:13.993Z,72.57
2023-04-18T03:28:42.782Z,73.00
2023-04-18T03:31:10.537Z,73.13
2023-04-18T03:33:42.423Z,72.39
2023-04-18T03:36:12.378Z,72.82
2023-04-18T03:38:40.712Z,73.42
2023-04-18T03:41:08.795Z,73.40
2023-04-18T03:43:37.757Z,73.72
2023-04-18T03:46:05.485Z,73.59
2023-04-18T03:48:35.892Z,74.40
2023-04-18T03:51:07.200Z,74.08
2023-04-18T03:53:35.069Z,73.34
2023-04-18T03:56:02.323Z,73.45
2023-04-18T03:59:02.522Z,73.34
2023-04-18T04:01:31.014Z,73.54
2023-04-18T04:03:58.519Z,73.23
2023-04-18T04:06:26.517Z,73.94
2023-04-18T04:08:55.802Z,74.42
2023-04-18T04:11:26.054Z,74.58
2023-04-18T04:13:53.397Z,74.23
2023-04-18T04:16:25.150Z,74.20
2023-04-18T04:18:54.792Z,73.47
2023-04-18T04:21:27.174Z,74.17
2023-04-18T04:23:54.220Z,73.30
2023-04-18T04:26:36.120Z,73.46
2023-04-18T04:29:10.906Z,73.30
2023-04-18T04:31:39.682Z,73.37
2023-04-18T04:34:07.106Z,73.37
2023-04-18T04:36:35.025Z,73.65
2023-04-18T04:39:05.453Z,73.34
2023-04-18T04:41:42.164Z,73.47
2023-04-18T04:44:10.079Z,73.08
2023-04-18T04:46:39.595Z,72.29
2023-04-18T04:49:12.343Z,72.45
2023-04-18T04:51:40.224Z,72.57
2023-04-18T04:54:07.347Z,72.45
2023-04-18T04:56:34.749Z,72.76
2023-04-18T04:59:02.493Z,72.68
2023-04-18T05:01:40.919Z,73.26
2023-04-18T05:04:08.653Z,73.70
2023-04-18T05:06:37.883Z,72.82
2023-04-18T05:09:06.413Z,73.37
2023-04-18T05:11:39.751Z,73.38
2023-04-18T05:14:06.796Z,73.97
2023-04-18T05:16:34.166Z,73.95
2023-04-18T05:19:01.470Z,74.30
2023-04-18T05:21:29.512Z,74.89
2023-04-18T05:23:56.456Z,74.33
2023-04-18T05:26:24.591Z,73.72
2023-04-18T05:28:51.773Z,74.74
2023-04-18T05:31:18.968Z,74.93
2023-04-18T05:33:46.070Z,75.22
2023-04-18T05:36:13.571Z,74.62
2023-04-18T05:38:40.737Z,75.08
2023-04-18T05:41:07.876Z,75.41
2023-04-18T05:43:35.323Z,75.11
2023-04-18T05:46:03.361Z,75.41
2023-04-18T05:48:30.708Z,75.82
2023-04-18T05:50:58.086Z,75.50
2023-04-18T05:53:25.283Z,76.65
2023-04-18T05:55:52.267Z,75.31
2023-04-18T05:58:19.599Z,75.78
2023-04-18T06:00:48.346Z,75.69
2023-04-18T06:03:16.163Z,76.32
2023-04-18T06:05:43.764Z,76.50
2023-04-18T06:08:10.907Z,76.42
2023-04-18T06:10:39.262Z,76.21
2023-04-18T06:13:06.423Z,75.89
2023-04-18T06:15:35.461Z,75.69
2023-04-18T06:18:02.537Z,75.24
2023-04-18T06:20:29.672Z,75.72
2023-04-18T06:22:56.694Z,75.64
2023-04-18T06:25:24.944Z,75.43
2023-04-18T06:27:51.986Z,74.71
2023-04-18T06:30:22.020Z,75.15
2023-04-18T06:32:49.584Z,74.55
2023-04-18T06:35:16.921Z,75.07
2023-04-18T06:37:44.981Z,75.29
2023-04-18T06:40:12.652Z,74.87
2023-04-18T06:42:39.938Z,75.21
2023-04-18T06:45:07.921Z,75.13
2023-04-18T06:50:02.146Z,75.38
2023-04-18T06:52:29.230Z,74.96
2023-04-18T06:54:56.267Z,74.56
2023-04-18T06:57:23.579Z,74.90
2023-04-18T06:59:50.902Z,74.60
2023-04-18T07:02:17.949Z,74.85
2023-04-18T07:04:45.203Z,74.88
2023-04-18T07:07:12.319Z,73.63
2023-04-18T07:09:39.522Z,73.29
2023-04-18T07:12:06.838Z,73.14
2023-04-18T07:14:34.283Z,72.63
2023-04-18T07:17:02.182Z,72.84
2023-04-18T07:19:29.334Z,72.75
2023-04-18T07:21:56.699Z,72.25
2023-04-18T07:24:24.013Z,72.61
2023-04-18T07:26:54.801Z,71.73
2023-04-18T07:29:22.254Z,71.86
2023-04-18T07:31:49.946Z,72.41
2023-04-18T07:34:17.904Z,72.03
2023-04-18T07:36:45.104Z,71.80
2023-04-18T07:39:12.173Z,71.31
2023-04-18T07:41:39.143Z,71.03
2023-04-18T07:44:07.573Z,71.06
2023-04-18T07:46:34.976Z,70.54
2023-04-18T07:49:02.519Z,71.13
2023-04-18T07:51:32.447Z,71.31
2023-04-18T07:53:59.815Z,70.24
2023-04-18T07:56:28.113Z,69.74
2023-04-18T07:58:55.740Z,69.74
2023-04-18T08:01:24.337Z,69.76
2023-04-18T08:03:53.627Z,69.44
2023-04-18T08:06:21.502Z,68.59
2023-04-18T08:08:49.039Z,68.49
2023-04-18T08:11:16.618Z,68.85
2023-04-18T08:13:43.760Z,68.59
2023-04-18T08:16:11.133Z,68.52
2023-04-18T08:18:38.398Z,68.47
2023-04-18T08:21:05.635Z,67.68
2023-04-18T08:23:32.727Z,67.78
2023-04-18T08:25:59.853Z,67.47
2023-04-18T08:28:26.963Z,66.18
2023-04-18T08:30:55.339Z,65.38
2023-04-18T08:33:24.078Z,63.69
2023-04-18T08:35:51.936Z,62.59
2023-04-18T08:38:19.396Z,62.15
2023-04-18T08:40:47.202Z,61.52
2023-04-18T08:43:15.788Z,60.11
2023-04-18T08:45:44.709Z,60.13
2023-04-18T08:48:14.112Z,59.63
2023-04-18T08:50:42.385Z,59.87
2023-04-18T08:53:10.674Z,58.72
2023-04-18T08:55:37.951Z,58.04
2023-04-18T08:58:06.958Z,58.31
2023-04-18T09:00:34.298Z,57.54
2023-04-18T09:03:03.812Z,57.56
2023-04-18T09:05:32.525Z,57.56
2023-04-18T09:08:02.039Z,57.34
2023-04-18T09:10:34.508Z,54.38
2023-04-18T09:13:04.429Z,53.89
2023-04-18T09:15:31.976Z,54.05
2023-04-18T09:18:03.230Z,54.44
2023-04-18T09:20:41.439Z,52.20
2023-04-18T09:23:14.589Z,52.50
2023-04-18T09:25:44.382Z,51.62
2023-04-18T09:28:31.903Z,50.62
2023-04-18T09:31:15.639Z,51.09
2023-04-18T09:33:56.971Z,50.78
2023-04-18T09:36:31.182Z,51.64
2023-04-18T09:38:58.868Z,52.11
2023-04-18T09:41:27.121Z,52.33
2023-04-18T09:44:14.641Z,53.13
2023-04-18T09:46:46.165Z,52.44
2023-04-18T09:49:14.912Z,52.16
2023-04-18T09:51:44.675Z,51.75
2023-04-18T09:54:16.215Z,51.54
2023-04-18T09:56:46.152Z,51.01
2023-04-18T09:59:18.660Z,51.79
2023-04-18T10:01:49.824Z,49.93
2023-04-18T10:04:18.388Z,49.63
2023-04-18T10:06:46.524Z,48.76
2023-04-18T10:09:16.095Z,48.13
2023-04-18T10:11:44.641Z,47.39
2023-04-18T10:14:14.218Z,47.76
2023-04-18T10:16:43.078Z,47.44
2023-04-18T10:19:30.400Z,45.68
2023-04-18T10:22:01.046Z,45.19
2023-04-18T10:24:53.602Z,44.73
2023-04-18T10:27:48.750Z,44.41
2023-04-18T10:30:17.205Z,45.06
2023-04-18T10:32:46.946Z,43.49
2023-04-18T10:35:14.227Z,43.98
2023-04-18T10:37:51.865Z,44.53
2023-04-18T10:40:34.125Z,42.72
2023-04-18T10:43:01.730Z,43.21
2023-04-18T10:45:32.605Z,41.85
2023-04-18T10:48:24.669Z,42.22
2023-04-18T10:51:20.927Z,43.15
2023-04-18T10:54:00.463Z,42.46
2023-04-18T10:56:29.115Z,42.80
2023-04-18T10:59:03.378Z,42.11
2023-04-18T11:01:33.140Z,41.21
2023-04-18T11:04:01.496Z,41.31
2023-04-18T11:06:30.422Z,41.06
2023-04-18T11:09:12.101Z,41.37
2023-04-18T11:11:41.016Z,41.43
2023-04-18T11:14:08.432Z,38.51
2023-04-18T11:16:36.552Z,39.70
2023-04-18T11:19:22.016Z,39.93
2023-04-18T11:21:49.665Z,40.83
2023-04-18T11:24:26.663Z,40.94
2023-04-18T11:26:56.099Z,40.80
2023-04-18T11:29:23.512Z,41.36
2023-04-18T11:31:55.275Z,40.23
2023-04-18T11:34:30.676Z,38.69
2023-04-18T11:36:58.219Z,39.68
2023-04-18T11:39:25.670Z,38.04
2023-04-18T11:41:55.003Z,36.92
2023-04-18T11:44:26.943Z,36.35
2023-04-18T11:46:54.182Z,36.82
2023-04-18T11:49:29.000Z,37.08
2023-04-18T11:51:56.484Z,36.00
2023-04-18T11:54:45.446Z,36.96
2023-04-18T11:57:39.082Z,37.64
2023-04-18T12:00:08.958Z,37.99
2023-04-18T12:02:59.430Z,35.42
2023-04-18T12:05:38.181Z,37.27
2023-04-18T12:08:20.036Z,35.27
2023-04-18T12:10:50.853Z,35.95
2023-04-18T12:13:19.600Z,36.52
2023-04-18T12:15:47.184Z,35.84
2023-04-18T12:18:18.295Z,35.70
2023-04-18T12:20:54.552Z,35.28
2023-04-18T12:23:40.366Z,36.90
2023-04-18T12:26:18.813Z,34.72
2023-04-18T12:28:48.113Z,34.31
2023-04-18T12:31:15.699Z,35.66
2023-04-18T12:33:43.219Z,36.25
2023-04-18T12:36:10.524Z,36.20
2023-04-18T12:38:37.623Z,36.25
2023-04-18T12:41:05.598Z,36.71
2023-04-18T12:43:32.804Z,35.57
2023-04-18T12:46:00.383Z,34.52
2023-04-18T12:48:27.432Z,34.61
2023-04-18T12:50:54.451Z,34.01
2023-04-18T12:53:21.510Z,33.70
2023-04-18T12:55:48.465Z,34.33
2023-04-18T12:58:18.699Z,34.67
2023-04-18T13:00:46.247Z,35.11
2023-04-18T13:03:13.654Z,35.97
2023-04-18T13:05:41.130Z,35.73
2023-04-18T13:08:17.079Z,36.32
2023-04-18T13:10:47.636Z,36.45
2023-04-18T13:13:14.902Z,36.71
2023-04-18T13:15:42.619Z,36.99
2023-04-18T13:18:09.672Z,36.16
2023-04-18T13:20:36.745Z,36.69
2023-04-18T13:23:04.045Z,37.22
2023-04-18T13:25:31.516Z,37.28
2023-04-18T13:28:00.746Z,37.15
2023-04-18T13:30:28.661Z,36.33
2023-04-18T13:32:56.844Z,35.55
2023-04-18T13:35:23.946Z,35.31
2023-04-18T13:37:50.956Z,34.35
2023-04-18T13:40:18.168Z,34.40
2023-04-18T13:42:45.334Z,34.96
2023-04-18T13:45:12.540Z,35.34
2023-04-18T13:47:39.796Z,35.56
2023-04-18T13:50:09.051Z,34.53
2023-04-18T13:52:36.487Z,34.28
2023-04-18T13:55:04.106Z,34.75
2023-04-18T13:57:32.359Z,35.77
2023-04-18T13:59:59.580Z,34.76
2023-04-18T14:02:26.903Z,35.03
2023-04-18T14:04:55.141Z,34.11
2023-04-18T14:07:22.428Z,34.30
2023-04-18T14:09:50.821Z,34.56
2023-04-18T14:12:18.771Z,35.08
2023-04-18T14:14:45.840Z,34.70
2023-04-18T14:17:12.891Z,34.29
2023-04-18T14:19:39.973Z,34.72
2023-04-18T14:22:07.927Z,34.34
2023-04-18T14:24:37.740Z,34.80
2023-04-18T14:27:04.926Z,35.35
2023-04-18T14:29:32.140Z,35.30
2023-04-18T14:31:59.572Z,35.79
2023-04-18T14:34:26.806Z,35.82
2023-04-18T14:36:53.829Z,35.97
2023-04-18T14:39:21.510Z,36.66
2023-04-18T14:41:48.619Z,36.34
2023-04-18T14:44:15.735Z,36.90
2023-04-18T14:46:43.315Z,36.89
2023-04-18T14:49:10.345Z,37.00
2023-04-18T14:51:37.411Z,37.31
2023-04-18T14:54:04.591Z,37.61
2023-04-18T14:56:31.796Z,37.54
2023-04-18T14:58:58.812Z,37.17
2023-04-18T15:01:26.324Z,37.11
2023-04-18T15:03:53.903Z,37.60
2023-04-18T15:06:21.273Z,37.72
2023-04-18T15:08:48.690Z,37.38
2023-04-18T15:11:15.957Z,37.00
2023-04-18T15:13:43.049Z,37.05
2023-04-18T15:16:10.214Z,36.73
2023-04-18T15:18:37.269Z,36.12
2023-04-18T15:21:04.605Z,35.91
2023-04-18T15:23:32.143Z,36.44
2023-04-18T15:25:59.467Z,36.79
2023-04-18T15:28:26.577Z,36.03
2023-04-18T15:30:54.215Z,35.72
2023-04-18T15:33:21.831Z,35.94
2023-04-18T15:35:48.858Z,36.43
2023-04-18T15:38:15.810Z,35.94
2023-04-18T15:40:43.606Z,36.49
2023-04-18T15:43:10.800Z,37.10
2023-04-18T15:45:37.834Z,38.05
2023-04-18T15:48:05.022Z,37.92
2023-04-18T15:50:33.613Z,38.03
2023-04-18T15:53:00.843Z,38.42
2023-04-18T15:55:28.554Z,38.91
2023-04-18T15:57:56.111Z,39.73
2023-04-18T16:00:24.028Z,39.43
2023-04-18T16:02:51.483Z,39.75
2023-04-18T16:05:19.060Z,39.62
2023-04-18T16:07:46.151Z,39.48
2023-04-18T16:10:15.338Z,39.64
2023-04-18T16:12:43.085Z,40.18
2023-04-18T16:15:11.197Z,40.10
2023-04-18T16:17:38.736Z,40.71
2023-04-18T16:20:08.581Z,41.10
2023-04-18T16:22:37.019Z,40.89
2023-04-18T16:25:05.196Z,41.15
2023-04-18T16:27:33.154Z,41.02
2023-04-18T16:30:02.097Z,41.10
2023-04-18T16:32:30.760Z,40.83
2023-04-18T16:34:58.214Z,41.48
2023-04-18T16:37:25.400Z,41.27
2023-04-18T16:39:52.613Z,41.30
2023-04-18T16:42:19.811Z,41.57
2023-04-18T16:44:47.347Z,42.41
2023-04-18T16:47:14.422Z,42.39
2023-04-18T16:49:43.534Z,42.85
2023-04-18T16:52:10.553Z,43.55
2023-04-18T16:54:37.607Z,44.30
2023-04-18T16:57:05.230Z,44.17
2023-04-18T16:59:32.421Z,44.43
2023-04-18T17:01:59.740Z,44.55
2023-04-18T17:04:27.206Z,44.98
2023-04-18T17:06:54.340Z,45.59
2023-04-18T17:09:22.047Z,45.85
2023-04-18T17:11:49.938Z,45.63
2023-04-18T17:14:18.341Z,45.43
2023-04-18T17:16:45.967Z,45.27
2023-04-18T17:19:13.378Z,45.39
2023-04-18T17:21:40.709Z,45.32
2023-04-18T17:24:08.124Z,45.31
2023-04-18T17:26:37.906Z,45.56
2023-04-18T17:29:04.994Z,45.32
2023-04-18T17:31:32.837Z,45.64
2023-04-18T17:34:00.396Z,46.43
2023-04-18T17:36:27.865Z,45.95
2023-04-18T17:38:55.481Z,46.64
2023-04-18T17:41:22.778Z,46.55
2023-04-18T17:43:53.598Z,47.19
2023-04-18T17:46:20.658Z,48.13
2023-04-18T17:48:47.707Z,48.11
2023-04-18T17:51:16.474Z,48.01
2023-04-18T17:53:46.940Z,48.08
2023-04-18T17:56:13.906Z,47.66
2023-04-18T17:58:41.225Z,47.43
2023-04-18T18:01:19.603Z,47.69
2023-04-18T18:03:48.241Z,47.92
2023-04-18T18:06:15.891Z,47.98
2023-04-18T18:08:43.561Z,47.76
2023-04-18T18:11:10.801Z,48.04
2023-04-18T18:13:39.163Z,48.23
2023-04-18T18:16:07.611Z,48.28
2023-04-18T18:18:35.399Z,48.34
2023-04-18T18:21:02.615Z,48.23
2023-04-18T18:23:29.550Z,48.02
2023-04-18T18:25:56.507Z,47.81
2023-04-18T18:28:23.495Z,48.62
2023-04-18T18:30:50.823Z,48.85
2023-04-18T18:33:18.115Z,49.60
2023-04-18T18:35:45.010Z,48.99
2023-04-18T18:38:12.031Z,49.42
2023-04-18T18:40:39.300Z,49.23
2023-04-18T18:43:06.419Z,49.21
2023-04-18T18:45:33.784Z,49.73
2023-04-18T18:48:00.852Z,50.32
2023-04-18T18:50:27.941Z,50.69
2023-04-18T18:52:55.011Z,51.17
2023-04-18T18:55:22.375Z,51.15
2023-04-18T18:57:49.806Z,51.75
2023-04-18T19:00:17.548Z,52.00
2023-04-18T19:02:46.214Z,52.18
2023-04-18T19:05:13.368Z,52.85
2023-04-18T19:07:43.557Z,53.09
2023-04-18T19:10:11.309Z,53.35
2023-04-18T19:12:38.563Z,53.20
2023-04-18T19:15:06.812Z,53.84
2023-04-18T19:17:34.088Z,54.17
2023-04-18T19:20:01.583Z,54.61
2023-04-18T19:22:29.838Z,54.59
2023-04-18T19:24:57.420Z,55.93
2023-04-18T19:27:24.389Z,55.19
2023-04-18T19:29:51.479Z,55.78
2023-04-18T19:32:18.472Z,56.23
2023-04-18T19:34:45.721Z,56.00
2023-04-18T19:37:12.768Z,56.49
2023-04-18T19:39:39.701Z,57.13
2023-04-18T19:42:07.456Z,57.10
2023-04-18T19:44:34.925Z,57.36
2023-04-18T19:47:01.911Z,57.19
2023-04-18T19:49:28.896Z,58.07
2023-04-18T19:51:55.892Z,57.71
2023-04-18T19:54:23.003Z,57.71
2023-04-18T19:56:50.407Z,57.99
2023-04-18T19:59:17.445Z,57.29
2023-04-18T20:01:44.895Z,57.00
2023-04-18T20:04:12.401Z,57.57
2023-04-18T20:06:39.545Z,57.32
2023-04-18T20:09:08.725Z,56.96
2023-04-18T20:11:36.100Z,57.22
2023-04-18T20:14:03.490Z,57.28
2023-04-18T20:16:30.537Z,57.13
2023-04-18T20:18:57.598Z,57.28
2023-04-18T20:21:24.614Z,57.44
2023-04-18T20:24:00.707Z,57.28
2023-04-18T20:26:27.875Z,57.28
2023-04-18T20:28:54.888Z,57.60
2023-04-18T20:31:22.172Z,57.49
2023-04-18T20:33:49.314Z,57.43
2023-04-18T20:36:17.738Z,57.18
2023-04-18T20:38:45.036Z,56.57
2023-04-18T20:41:18.149Z,57.22
2023-04-18T20:43:46.108Z,57.23
2023-04-18T20:46:19.726Z,56.97
2023-04-18T20:48:46.911Z,57.37
2023-04-18T20:51:14.827Z,57.14
2023-04-18T20:53:41.828Z,57.08
2023-04-18T20:56:08.788Z,56.72
2023-04-18T20:58:36.251Z,57.49
2023-04-18T21:01:03.932Z,56.99
2023-04-18T21:03:31.233Z,56.90
2023-04-18T21:05:58.284Z,57.10
2023-04-18T21:08:25.720Z,57.39
2023-04-18T21:10:53.135Z,57.57
2023-04-18T21:13:20.112Z,57.53
2023-04-18T21:15:47.463Z,57.66
2023-04-18T21:18:14.430Z,57.44
2023-04-18T21:20:41.473Z,56.96
2023-04-18T21:23:08.432Z,56.98
2023-04-18T21:25:35.522Z,56.90
2023-04-18T21:28:02.828Z,57.16
2023-04-18T21:30:30.158Z,56.91
2023-04-18T21:32:57.306Z,57.00
2023-04-18T21:35:25.148Z,56.59
2023-04-18T21:37:52.332Z,56.90
2023-04-18T21:40:19.466Z,57.07
2023-04-18T21:42:47.769Z,56.93
2023-04-18T21:45:17.509Z,57.31
2023-04-18T21:47:44.583Z,57.22
2023-04-18T21:50:11.906Z,57.43
2023-04-18T21:52:39.060Z,56.99
2023-04-18T21:55:06.343Z,57.26
2023-04-18T21:57:33.597Z,58.05
2023-04-18T22:00:01.226Z,57.87
2023-04-18T22:02:29.635Z,57.76
2023-04-18T22:04:56.712Z,57.58
2023-04-18T22:07:24.699Z,57.74
2023-04-18T22:09:51.700Z,57.22
2023-04-18T22:12:19.110Z,57.47
2023-04-18T22:14:48.393Z,57.35
2023-04-18T22:17:15.457Z,57.86
2023-04-18T22:19:44.388Z,57.65
2023-04-18T22:22:11.729Z,57.42
2023-04-18T22:24:38.718Z,58.23
2023-04-18T22:27:05.930Z,57.61
2023-04-18T22:29:33.813Z,58.12
2023-04-18T22:32:01.241Z,58.13
2023-04-18T22:34:28.324Z,58.55
2023-04-18T22:36:55.360Z,58.72
2023-04-18T22:39:22.973Z,58.79
2023-04-18T22:41:50.257Z,58.69
2023-04-18T22:44:17.836Z,59.56
2023-04-18T22:46:46.156Z,59.30
2023-04-18T22:49:14.370Z,59.83
2023-04-18T22:51:42.401Z,59.67
2023-04-18T22:54:09.680Z,60.02
2023-04-18T22:56:36.661Z,59.97
2023-04-18T22:59:03.719Z,59.94
2023-04-18T23:01:30.939Z,59.88
2023-04-18T23:03:58.579Z,59.65
2023-04-18T23:06:27.836Z,60.63
2023-04-18T23:08:55.017Z,61.16
2023-04-18T23:11:22.337Z,60.66
2023-04-18T23:13:49.524Z,60.38
2023-04-18T23:16:16.599Z,61.25
2023-04-18T23:18:43.571Z,61.31
2023-04-18T23:21:10.585Z,61.53
2023-04-18T23:23:37.556Z,61.27
2023-04-18T23:26:15.728Z,61.53
2023-04-18T23:28:42.791Z,62.14
2023-04-18T23:31:10.339Z,61.99
2023-04-18T23:33:37.562Z,62.02
2023-04-18T23:36:04.690Z,61.64
2023-04-18T23:38:32.583Z,61.65
2023-04-18T23:40:59.748Z,61.76
2023-04-18T23:43:26.909Z,61.95
2023-04-18T23:45:53.856Z,62.35
2023-04-18T23:48:21.364Z,61.90
2023-04-18T23:50:50.347Z,62.18
2023-04-18T23:53:17.560Z,62.51
2023-04-18T23:55:46.214Z,62.73
2023-04-18T23:58:14.174Z,62.42
